Time;durP1;ratioP1;P1;durP2;ratioP2;P2;SDS_P1;SDS_P2;PMS_P1;PMS_P2;Temp;Humidity;BMP_temperature;BMP_pressure;BME280_temperature;BME280_humidity;BME280_pressure;Samples;Min_cycle;Max_cycle;Signal;HPM_P1;HPM_P2
2022/03/01 00:01:03;;;;;;;19.50;8.10;;;;;-0.80;97644.00;;;;8350837;28;20271;-71
2022/03/01 00:05:08;;;;;;;19.40;7.43;;;;;-0.80;97640.00;;;;8355862;28;20247;-69
2022/03/01 00:09:11;;;;;;;15.10;7.33;;;;;-0.80;97640.00;;;;8352803;28;20543;-69
2022/03/01 00:13:14;;;;;;;16.97;7.90;;;;;-0.80;97633.00;;;;8351383;28;20232;-67
2022/03/01 00:17:17;;;;;;;18.90;7.70;;;;;-0.80;97643.00;;;;8356834;28;20683;-67
2022/03/01 00:21:21;;;;;;;18.93;7.13;;;;;-0.80;97646.00;;;;8358303;28;20251;-69
2022/03/01 00:25:24;;;;;;;18.30;7.27;;;;;-0.90;97638.00;;;;8348208;28;20670;-68
2022/03/01 00:29:27;;;;;;;18.77;8.50;;;;;-0.90;97647.00;;;;8349787;28;20307;-69
2022/03/01 00:33:30;;;;;;;18.57;7.47;;;;;-0.90;97641.00;;;;8353803;28;20236;-68
2022/03/01 00:37:35;;;;;;;18.80;8.57;;;;;-0.90;97639.00;;;;8348183;28;20236;-66
2022/03/01 00:41:38;;;;;;;18.67;8.20;;;;;-1.00;97639.00;;;;8348849;28;20232;-67
2022/03/01 00:45:41;;;;;;;22.60;8.37;;;;;-1.00;97635.00;;;;8347639;28;20227;-67
2022/03/01 00:49:44;;;;;;;19.97;7.70;;;;;-1.10;97642.00;;;;8357575;28;20225;-67
2022/03/01 00:53:48;;;;;;;19.40;7.67;;;;;-1.10;97630.00;;;;8352560;28;20219;-69
2022/03/01 00:57:51;;;;;;;20.60;8.23;;;;;-1.10;97623.00;;;;8347697;28;20236;-69
2022/03/01 01:01:54;;;;;;;23.47;8.40;;;;;-1.10;97624.00;;;;8348765;28;20232;-68
2022/03/01 01:05:57;;;;;;;18.70;7.90;;;;;-1.10;97614.00;;;;8349167;28;20248;-70
2022/03/01 01:10:02;;;;;;;17.43;7.67;;;;;-1.10;97614.00;;;;8345193;28;20567;-69
2022/03/01 01:14:05;;;;;;;19.40;6.93;;;;;-1.10;97609.00;;;;8348129;28;20230;-68
2022/03/01 01:18:09;;;;;;;17.93;8.03;;;;;-1.10;97602.00;;;;8352174;28;20287;-68
2022/03/01 01:26:33;;;;;;;15.03;7.00;;;;;-1.20;97600.00;;;;8347679;28;20620;-67
2022/03/01 01:30:37;;;;;;;13.27;6.67;;;;;-1.30;97586.00;;;;8354831;28;20220;-69
2022/03/01 01:34:40;;;;;;;9.27;5.60;;;;;-1.20;97588.00;;;;8348335;28;20230;-70
2022/03/01 01:38:43;;;;;;;15.07;6.47;;;;;-1.10;97576.00;;;;8347285;28;20668;-70
2022/03/01 01:42:47;;;;;;;16.70;6.70;;;;;-1.10;97573.00;;;;8348775;28;20317;-69
2022/03/01 01:46:50;;;;;;;13.33;5.73;;;;;-1.10;97580.00;;;;8346845;28;20228;-70
2022/03/01 01:50:55;;;;;;;14.37;6.40;;;;;-1.00;97564.00;;;;8348570;28;20244;-69
2022/03/01 01:54:58;;;;;;;12.67;5.73;;;;;-1.10;97565.00;;;;8348983;28;20232;-69
2022/03/01 01:59:03;;;;;;;15.00;6.27;;;;;-1.10;97567.00;;;;8346366;28;20216;-70
2022/03/01 02:03:06;;;;;;;15.27;6.10;;;;;-1.10;97568.00;;;;8347469;28;20618;-69
2022/03/01 02:07:10;;;;;;;13.63;6.27;;;;;-1.10;97569.00;;;;8336602;28;20301;-70
2022/03/01 02:11:13;;;;;;;13.93;6.03;;;;;-1.10;97569.00;;;;8343594;28;20637;-70
2022/03/01 02:15:17;;;;;;;14.37;5.60;;;;;-1.20;97561.00;;;;8345377;28;20279;-70
2022/03/01 02:19:21;;;;;;;17.50;6.27;;;;;-1.20;97559.00;;;;8345428;28;20640;-69
2022/03/01 02:23:25;;;;;;;13.30;6.30;;;;;-1.30;97559.00;;;;8346293;28;20237;-65
2022/03/01 02:27:28;;;;;;;11.33;5.70;;;;;-1.30;97563.00;;;;8349258;28;20229;-69
2022/03/01 02:31:31;;;;;;;16.30;6.40;;;;;-1.40;97552.00;;;;8345247;28;20229;-70
2022/03/01 02:35:34;;;;;;;14.00;6.00;;;;;-1.40;97554.00;;;;8345816;28;20236;-69
2022/03/01 02:39:38;;;;;;;10.00;5.60;;;;;-1.50;97554.00;;;;8350920;28;20290;-69
2022/03/01 02:43:41;;;;;;;12.53;5.97;;;;;-1.60;97550.00;;;;8347288;28;20745;-69
2022/03/01 02:47:45;;;;;;;11.60;6.07;;;;;-1.60;97547.00;;;;8352682;28;20298;-68
2022/03/01 02:51:48;;;;;;;13.30;6.33;;;;;-1.70;97553.00;;;;8344773;28;20233;-69
2022/03/01 02:55:52;;;;;;;14.23;5.60;;;;;-1.70;97549.00;;;;8348168;28;20232;-69
2022/03/01 02:59:56;;;;;;;13.87;6.33;;;;;-1.80;97552.00;;;;8350713;28;20224;-68
2022/03/01 03:04:00;;;;;;;12.27;6.07;;;;;-1.80;97551.00;;;;8442221;22;20231;-68
2022/03/01 03:08:03;;;;;;;11.77;5.17;;;;;-1.80;97541.00;;;;8414218;28;20773;-68
2022/03/01 03:12:09;;;;;;;14.80;5.30;;;;;-1.90;97544.00;;;;8407772;28;20225;-68
2022/03/01 03:16:12;;;;;;;13.50;5.60;;;;;-1.90;97539.00;;;;8409777;28;20304;-69
2022/03/01 03:20:16;;;;;;;13.03;6.20;;;;;-1.90;97535.00;;;;8412613;28;20337;-67
2022/03/01 03:24:21;;;;;;;11.50;5.73;;;;;-2.00;97533.00;;;;8401470;28;20588;-67
2022/03/01 03:28:26;;;;;;;10.97;5.57;;;;;-1.90;97529.00;;;;8401253;28;20233;-68
2022/03/01 03:32:29;;;;;;;9.60;5.63;;;;;-1.90;97536.00;;;;8401247;28;20673;-67
2022/03/01 03:36:34;;;;;;;13.57;6.00;;;;;-1.80;97528.00;;;;8406376;28;20239;-70
2022/03/01 03:40:37;;;;;;;10.70;5.53;;;;;-1.80;97522.00;;;;8400001;28;20635;-69
2022/03/01 03:44:41;;;;;;;13.83;5.80;;;;;-1.80;97524.00;;;;8401744;28;20223;-69
2022/03/01 03:48:44;;;;;;;12.80;5.90;;;;;-1.80;97522.00;;;;8398210;28;20273;-70
2022/03/01 03:52:48;;;;;;;8.90;4.17;;;;;-1.80;97520.00;;;;8403593;28;20272;-69
2022/03/01 03:56:51;;;;;;;11.10;5.67;;;;;-1.70;97522.00;;;;8406929;28;20231;-68
2022/03/01 04:00:55;;;;;;;12.30;5.90;;;;;-1.70;97521.00;;;;8401408;28;20682;-69
2022/03/01 04:04:59;;;;;;;11.50;5.83;;;;;-1.70;97526.00;;;;8400238;28;21021;-69
2022/03/01 04:09:02;;;;;;;12.63;5.77;;;;;-1.70;97518.00;;;;8402512;28;20231;-67
2022/03/01 04:13:05;;;;;;;11.07;5.23;;;;;-1.70;97526.00;;;;8407629;28;20269;-67
2022/03/01 04:17:09;;;;;;;13.93;6.23;;;;;-1.60;97526.00;;;;8405863;28;20235;-67
2022/03/01 04:21:14;;;;;;;12.97;6.03;;;;;-1.70;97523.00;;;;8398916;28;20229;-68
2022/03/01 04:25:17;;;;;;;11.63;5.23;;;;;-1.70;97521.00;;;;8414229;28;20298;-69
2022/03/01 04:29:20;;;;;;;9.63;5.67;;;;;-1.70;97533.00;;;;8402921;28;20231;-68
2022/03/01 04:33:24;;;;;;;13.97;5.50;;;;;-1.70;97527.00;;;;8406724;28;20231;-68
2022/03/01 04:37:28;;;;;;;12.13;5.70;;;;;-1.70;97519.00;;;;8397782;28;20227;-70
2022/03/01 04:41:31;;;;;;;14.23;5.33;;;;;-1.70;97514.00;;;;8398449;28;20695;-69
2022/03/01 04:45:34;;;;;;;11.00;5.43;;;;;-1.80;97502.00;;;;8411197;28;20295;-70
2022/03/01 04:49:39;;;;;;;11.47;4.97;;;;;-1.70;97501.00;;;;8410305;28;20238;-68
2022/03/01 04:53:42;;;;;;;13.80;6.00;;;;;-1.80;97500.00;;;;8397484;28;20249;-67
2022/03/01 04:57:47;;;;;;;13.00;5.50;;;;;-1.80;97494.00;;;;8401722;28;20296;-68
2022/03/01 05:01:50;;;;;;;11.53;5.40;;;;;-1.80;97500.00;;;;8408889;28;20219;-67
2022/03/01 05:05:55;;;;;;;12.07;6.10;;;;;-1.80;97496.00;;;;8406341;28;20254;-69
2022/03/01 05:09:58;;;;;;;14.33;6.10;;;;;-1.80;97499.00;;;;8401012;28;20224;-70
2022/03/01 05:14:01;;;;;;;18.40;5.67;;;;;-1.90;97505.00;;;;8403898;28;20921;-72
2022/03/01 05:18:04;;;;;;;14.37;6.27;;;;;-1.90;97509.00;;;;8403782;28;20862;-70
2022/03/01 05:22:11;;;;;;;12.70;6.27;;;;;-2.00;97499.00;;;;8409903;28;20231;-72
2022/03/01 05:26:15;;;;;;;16.33;6.70;;;;;-2.10;97497.00;;;;8411166;28;20230;-70
2022/03/01 05:30:19;;;;;;;11.03;6.10;;;;;-2.10;97497.00;;;;8412874;28;20826;-69
2022/03/01 05:34:22;;;;;;;12.93;6.37;;;;;-2.10;97499.00;;;;8415285;28;20680;-69
2022/03/01 05:38:27;;;;;;;14.37;6.37;;;;;-2.10;97504.00;;;;8408757;28;20250;-70
2022/03/01 05:42:30;;;;;;;14.90;6.53;;;;;-2.00;97503.00;;;;8398705;28;20275;-70
2022/03/01 05:46:33;;;;;;;12.90;6.27;;;;;-2.00;97509.00;;;;8408115;28;20363;-70
2022/03/01 05:50:36;;;;;;;12.47;5.53;;;;;-2.00;97513.00;;;;8399874;28;20231;-69
2022/03/01 05:54:41;;;;;;;20.87;7.87;;;;;-2.10;97512.00;;;;8408385;28;20245;-70
2022/03/01 05:58:44;;;;;;;18.47;7.13;;;;;-2.00;97518.00;;;;8420855;28;20264;-68
2022/03/01 06:02:49;;;;;;;15.37;6.60;;;;;-2.00;97514.00;;;;8411180;28;20256;-69
2022/03/01 06:06:53;;;;;;;19.93;8.13;;;;;-2.10;97525.00;;;;8417803;28;20252;-70
2022/03/01 06:10:57;;;;;;;15.23;6.10;;;;;-2.10;97513.00;;;;8402882;28;20231;-71
2022/03/01 06:15:00;;;;;;;13.97;6.13;;;;;-2.10;97522.00;;;;8412444;28;20231;-70
2022/03/01 06:19:03;;;;;;;16.03;6.40;;;;;-2.10;97520.00;;;;8419597;28;20290;-69
2022/03/01 06:23:07;;;;;;;15.33;6.07;;;;;-2.10;97527.00;;;;8416843;28;20231;-68
2022/03/01 06:27:12;;;;;;;8.93;5.33;;;;;-2.10;97522.00;;;;8410261;28;20284;-70
2022/03/01 06:31:15;;;;;;;16.50;6.53;;;;;-2.00;97521.00;;;;8398876;28;20227;-69
2022/03/01 06:35:18;;;;;;;12.10;5.67;;;;;-1.90;97519.00;;;;8392591;28;20231;-70
2022/03/01 06:39:27;;;;;;;16.43;6.80;;;;;-1.80;97526.00;;;;8415449;28;20251;-70
2022/03/01 06:43:31;;;;;;;13.70;7.10;;;;;-1.90;97528.00;;;;8416995;28;20291;-70
2022/03/01 06:47:35;;;;;;;16.73;7.30;;;;;-1.90;97522.00;;;;8419402;28;20230;-70
2022/03/01 06:51:38;;;;;;;20.03;7.40;;;;;-1.80;97526.00;;;;8422688;28;20238;-69
2022/03/01 06:55:41;;;;;;;12.80;6.07;;;;;-1.80;97525.00;;;;8423246;28;20234;-70
2022/03/01 06:59:45;;;;;;;14.40;6.43;;;;;-1.70;97529.00;;;;8412767;28;20585;-70
2022/03/01 07:03:48;;;;;;;14.77;6.33;;;;;-1.60;97524.00;;;;8422352;28;20245;-69
2022/03/01 07:07:51;;;;;;;17.03;6.17;;;;;-1.60;97531.00;;;;8414237;28;20656;-71
2022/03/01 07:11:56;;;;;;;13.10;6.60;;;;;-1.40;97534.00;;;;8411821;28;20940;-70
2022/03/01 07:16:00;;;;;;;13.13;6.53;;;;;-1.30;97537.00;;;;8417789;28;20631;-70
2022/03/01 07:20:07;;;;;;;10.37;5.77;;;;;-1.20;97538.00;;;;8429412;28;20244;-69
2022/03/01 07:24:10;;;;;;;12.50;5.77;;;;;-1.10;97546.00;;;;8414931;28;20704;-69
2022/03/01 07:28:14;;;;;;;13.77;6.43;;;;;-0.90;97545.00;;;;8420843;28;20301;-69
2022/03/01 07:32:19;;;;;;;15.93;5.67;;;;;-0.80;97539.00;;;;8409482;28;20244;-69
2022/03/01 07:36:22;;;;;;;15.83;6.83;;;;;-0.70;97539.00;;;;8418272;28;20632;-69
2022/03/01 07:40:27;;;;;;;13.00;6.60;;;;;-0.60;97550.00;;;;8418980;28;20661;-69
2022/03/01 07:44:30;;;;;;;11.27;5.70;;;;;-0.40;97542.00;;;;8415358;28;20329;-70
2022/03/01 07:48:35;;;;;;;14.10;5.53;;;;;-0.20;97556.00;;;;8413975;28;20220;-70
2022/03/01 07:52:38;;;;;;;12.07;5.07;;;;;-0.10;97566.00;;;;8400009;28;20460;-70
2022/03/01 07:56:41;;;;;;;13.40;5.60;;;;;0.00;97562.00;;;;8414567;28;20270;-71
2022/03/01 08:00:44;;;;;;;10.60;5.80;;;;;0.20;97571.00;;;;8402631;28;20243;-71
2022/03/01 08:04:49;;;;;;;13.27;6.03;;;;;0.30;97572.00;;;;8417139;28;20240;-69
2022/03/01 08:09:12;;;;;;;14.47;5.97;;;;;0.40;97579.00;;;;8411968;28;20612;-69
2022/03/01 08:13:16;;;;;;;11.97;5.27;;;;;0.60;97584.00;;;;8420248;28;20249;-68
2022/03/01 08:17:19;;;;;;;12.20;6.33;;;;;0.80;97587.00;;;;8417357;28;20235;-66
2022/03/01 08:21:24;;;;;;;13.37;5.67;;;;;0.90;97585.00;;;;8416478;28;20288;-69
2022/03/01 08:25:28;;;;;;;13.43;6.20;;;;;1.00;97580.00;;;;8409374;28;20265;-69
2022/03/01 08:29:32;;;;;;;12.63;5.73;;;;;1.10;97577.00;;;;8412737;28;20231;-69
2022/03/01 08:33:35;;;;;;;8.57;5.30;;;;;1.20;97582.00;;;;8409618;28;20232;-70
2022/03/01 08:37:40;;;;;;;13.57;5.73;;;;;1.40;97570.00;;;;8406005;28;20280;-69
2022/03/01 08:41:43;;;;;;;10.33;5.53;;;;;1.60;97573.00;;;;8410417;28;20706;-69
2022/03/01 08:45:46;;;;;;;11.03;5.17;;;;;1.80;97566.00;;;;8416619;28;20264;-69
2022/03/01 08:49:49;;;;;;;8.67;5.00;;;;;2.10;97550.00;;;;8411334;28;20259;-69
2022/03/01 08:53:54;;;;;;;9.03;4.90;;;;;2.30;97562.00;;;;8410000;28;20231;-70
2022/03/01 08:57:59;;;;;;;9.07;4.87;;;;;2.50;97554.00;;;;8414018;28;20239;-70
2022/03/01 09:02:02;;;;;;;14.97;5.57;;;;;2.70;97558.00;;;;8410522;28;20227;-69
2022/03/01 09:06:06;;;;;;;14.50;5.13;;;;;2.90;97541.00;;;;8411199;28;20235;-68
2022/03/01 09:10:12;;;;;;;12.23;4.83;;;;;3.10;97551.00;;;;8407437;28;21095;-69
2022/03/01 09:14:15;;;;;;;8.90;4.80;;;;;3.30;97556.00;;;;8399912;28;20233;-71
2022/03/01 09:18:18;;;;;;;12.63;5.07;;;;;3.50;97547.00;;;;8404538;28;20234;-69
2022/03/01 09:22:22;;;;;;;9.23;4.83;;;;;3.60;97545.00;;;;8408911;28;20273;-71
2022/03/01 09:26:26;;;;;;;8.37;4.53;;;;;3.80;97529.00;;;;8410677;28;20899;-72
2022/03/01 09:30:29;;;;;;;7.67;4.50;;;;;3.90;97532.00;;;;8408335;28;20228;-71
2022/03/01 09:34:33;;;;;;;8.53;4.20;;;;;4.00;97525.00;;;;8410836;28;20235;-73
2022/03/01 09:38:36;;;;;;;10.30;4.37;;;;;4.10;97521.00;;;;8408826;28;20229;-74
2022/03/01 09:42:40;;;;;;;14.57;5.43;;;;;4.20;97532.00;;;;8411775;28;20234;-74
2022/03/01 09:46:44;;;;;;;8.57;4.60;;;;;4.30;97528.00;;;;8411944;28;20223;-75
2022/03/01 09:50:49;;;;;;;6.73;3.50;;;;;4.40;97535.00;;;;8406362;28;20318;-85
2022/03/01 09:54:53;;;;;;;6.63;3.80;;;;;4.50;97527.00;;;;8411449;28;20238;-81
2022/03/01 09:58:58;;;;;;;7.77;4.53;;;;;4.60;97532.00;;;;8416198;28;20278;-76
2022/03/01 10:03:01;;;;;;;14.70;4.47;;;;;4.70;97521.00;;;;8401458;28;20270;-75
2022/03/01 10:07:10;;;;;;;5.83;4.30;;;;;4.90;97522.00;;;;8406131;28;20765;-76
2022/03/01 10:11:18;;;;;;;8.00;4.00;;;;;5.10;97510.00;;;;8402412;28;21917;-77
2022/03/01 10:15:28;;;;;;;13.80;4.67;;;;;5.30;97503.00;;;;8406489;28;20219;-80
2022/03/01 10:19:31;;;;;;;14.47;4.87;;;;;5.60;97494.00;;;;8405164;28;20230;-79
2022/03/01 10:23:35;;;;;;;7.70;4.37;;;;;5.70;97484.00;;;;8406424;28;20249;-77
2022/03/01 10:27:38;;;;;;;7.20;4.07;;;;;5.90;97487.00;;;;8407387;28;20761;-79
2022/03/01 10:31:49;;;;;;;7.10;4.33;;;;;5.90;97488.00;;;;8407500;28;20280;-79
2022/03/01 10:35:59;;;;;;;7.83;4.17;;;;;6.10;97481.00;;;;8406130;28;20250;-76
2022/03/01 10:40:14;;;;;;;6.37;3.43;;;;;6.20;97471.00;;;;8403267;28;20234;-76
2022/03/01 10:44:22;;;;;;;5.03;3.33;;;;;6.50;97470.00;;;;8406983;28;20212;-75
2022/03/01 10:48:30;;;;;;;6.07;4.20;;;;;7.00;97470.00;;;;8412119;28;20282;-74
2022/03/01 10:52:34;;;;;;;7.97;4.17;;;;;7.50;97467.00;;;;8410980;28;20238;-75
2022/03/01 10:56:38;;;;;;;7.43;3.53;;;;;7.90;97471.00;;;;8408057;28;20240;-76
2022/03/01 11:00:41;;;;;;;6.03;3.40;;;;;8.00;97457.00;;;;8408847;28;20916;-76
2022/03/01 11:04:46;;;;;;;6.27;4.20;;;;;8.00;97451.00;;;;8415500;28;20236;-76
2022/03/01 11:08:51;;;;;;;6.23;3.30;;;;;8.00;97440.00;;;;8411023;28;20318;-76
2022/03/01 11:12:55;;;;;;;7.67;3.90;;;;;8.00;97429.00;;;;8406602;28;20261;-76
2022/03/01 11:17:09;;;;;;;3.20;2.83;;;;;8.00;97417.00;;;;8409065;28;20309;-76
2022/03/01 11:21:15;;;;;;;7.43;3.77;;;;;8.20;97422.00;;;;8408284;28;20308;-75
2022/03/01 11:25:19;;;;;;;7.40;3.80;;;;;8.00;97416.00;;;;8407440;28;20223;-77
2022/03/01 11:29:25;;;;;;;4.90;3.33;;;;;7.80;97405.00;;;;8418408;28;20846;-77
2022/03/01 11:33:35;;;;;;;7.83;3.77;;;;;7.70;97403.00;;;;8426642;28;20320;-80
2022/03/01 11:37:39;;;;;;;6.43;3.70;;;;;7.50;97389.00;;;;8415330;28;20238;-77
2022/03/01 11:41:49;;;;;;;3.90;3.20;;;;;7.50;97394.00;;;;8409535;28;20925;-80
2022/03/01 11:45:54;;;;;;;5.20;3.10;;;;;7.30;97396.00;;;;8408354;28;20226;-82
2022/03/01 11:49:57;;;;;;;5.17;3.20;;;;;7.30;97393.00;;;;8403228;28;20226;-82
2022/03/01 11:54:11;;;;;;;5.60;3.40;;;;;7.40;97370.00;;;;8411434;28;20238;-83
2022/03/01 11:58:14;;;;;;;4.63;3.37;;;;;7.60;97385.00;;;;8413268;28;20332;-83
2022/03/01 12:02:18;;;;;;;8.07;4.10;;;;;7.70;97374.00;;;;8409665;28;20248;-83
2022/03/01 12:06:22;;;;;;;5.67;3.60;;;;;7.70;97364.00;;;;8411146;28;20255;-83
2022/03/01 12:10:27;;;;;;;4.63;3.50;;;;;7.80;97365.00;;;;8407498;28;20675;-81
2022/03/01 12:14:33;;;;;;;4.63;3.20;;;;;7.90;97361.00;;;;8411353;28;20318;-84
2022/03/01 12:18:39;;;;;;;5.37;3.47;;;;;7.80;97364.00;;;;8408532;28;20230;-84
2022/03/01 12:22:58;;;;;;;3.60;3.30;;;;;7.70;97363.00;;;;8417015;28;20239;-85
2022/03/01 12:27:04;;;;;;;7.80;3.23;;;;;7.60;97359.00;;;;8409123;28;20214;-85
2022/03/01 12:31:09;;;;;;;7.43;3.50;;;;;7.70;97360.00;;;;8414324;28;20227;-82
2022/03/01 12:35:12;;;;;;;5.03;3.60;;;;;7.70;97353.00;;;;8433263;28;20233;-85
2022/03/01 12:39:17;;;;;;;3.93;3.30;;;;;7.70;97350.00;;;;8417963;28;20238;-86
2022/03/01 12:43:24;;;;;;;5.67;3.93;;;;;7.70;97346.00;;;;8411308;28;20245;-84
2022/03/01 12:47:27;;;;;;;3.83;3.30;;;;;7.70;97344.00;;;;8415236;28;20231;-83
2022/03/01 12:51:31;;;;;;;4.80;3.30;;;;;7.80;97332.00;;;;8415655;28;20237;-85
2022/03/01 12:55:34;;;;;;;6.90;3.30;;;;;7.80;97339.00;;;;8410740;28;20260;-82
2022/03/01 12:59:39;;;;;;;4.77;3.30;;;;;7.80;97344.00;;;;8407018;28;20272;-84
2022/03/01 13:03:44;;;;;;;3.70;3.27;;;;;7.80;97341.00;;;;8412220;28;20683;-82
2022/03/01 13:07:47;;;;;;;7.90;3.13;;;;;7.90;97325.00;;;;8413618;28;20326;-83
2022/03/01 13:11:51;;;;;;;3.70;3.37;;;;;7.90;97331.00;;;;8410016;28;20230;-81
2022/03/01 13:16:04;;;;;;;5.27;3.20;;;;;7.90;97327.00;;;;8413309;28;20224;-80
2022/03/01 13:20:08;;;;;;;4.53;3.37;;;;;7.90;97327.00;;;;8418704;28;20231;-82
2022/03/01 13:24:14;;;;;;;3.73;2.93;;;;;7.90;97321.00;;;;8415211;28;20259;-85
2022/03/01 13:28:17;;;;;;;4.47;3.20;;;;;7.90;97322.00;;;;8413269;28;20233;-80
2022/03/01 13:32:26;;;;;;;5.63;3.23;;;;;8.00;97311.00;;;;8410106;28;20313;-82
2022/03/01 13:36:32;;;;;;;4.77;2.90;;;;;8.00;97318.00;;;;8405858;28;20223;-82
2022/03/01 13:40:37;;;;;;;6.53;3.50;;;;;7.90;97313.00;;;;8412984;28;20483;-79
2022/03/01 13:44:44;;;;;;;4.40;3.03;;;;;8.20;97311.00;;;;8409178;28;20252;-82
2022/03/01 13:48:48;;;;;;;3.77;3.10;;;;;8.30;97306.00;;;;8405887;28;20339;-84
2022/03/01 13:52:56;;;;;;;4.83;3.03;;;;;8.30;97307.00;;;;8406830;28;20227;-83
2022/03/01 13:56:59;;;;;;;3.97;2.70;;;;;8.30;97310.00;;;;8411020;28;20242;-83
2022/03/01 14:01:06;;;;;;;3.30;2.83;;;;;8.20;97311.00;;;;8405573;28;22262;-84
2022/03/01 14:05:12;;;;;;;6.87;3.80;;;;;8.20;97312.00;;;;8403236;28;20241;-83
2022/03/01 14:09:15;;;;;;;4.23;3.33;;;;;8.20;97313.00;;;;8409682;28;20235;-83
2022/03/01 14:13:25;;;;;;;5.63;3.20;;;;;8.20;97302.00;;;;8413965;28;20245;-83
2022/03/01 14:17:28;;;;;;;4.57;3.03;;;;;8.20;97303.00;;;;8411211;28;20656;-84
2022/03/01 14:21:33;;;;;;;8.60;3.30;;;;;8.20;97293.00;;;;8403121;28;20236;-84
2022/03/01 14:25:37;;;;;;;7.93;3.50;;;;;8.30;97291.00;;;;8412131;28;20223;-85
2022/03/01 14:29:40;;;;;;;6.47;3.53;;;;;8.30;97284.00;;;;8412495;28;20231;-85
2022/03/01 14:33:43;;;;;;;4.30;3.40;;;;;8.40;97274.00;;;;8406476;28;20234;-83
2022/03/01 14:37:47;;;;;;;4.17;3.30;;;;;8.50;97266.00;;;;8412769;28;20234;-84
2022/03/01 14:41:50;;;;;;;5.97;3.43;;;;;8.60;97270.00;;;;8409585;28;21752;-85
2022/03/01 14:45:53;;;;;;;4.93;3.10;;;;;8.60;97271.00;;;;8407649;28;20292;-84
2022/03/01 14:49:56;;;;;;;5.87;3.87;;;;;8.70;97270.00;;;;8412627;28;20227;-83
2022/03/01 14:54:01;;;;;;;5.57;4.00;;;;;8.80;97270.00;;;;8409411;28;20230;-80
2022/03/01 14:58:05;;;;;;;4.57;3.37;;;;;8.90;97266.00;;;;8397171;28;20246;-81
2022/03/01 15:02:08;;;;;;;4.70;3.33;;;;;8.90;97264.00;;;;8416097;28;20433;-83
2022/03/01 15:06:13;;;;;;;4.83;3.33;;;;;8.90;97248.00;;;;8416191;28;20307;-84
2022/03/01 15:10:18;;;;;;;4.87;3.40;;;;;8.90;97252.00;;;;8414139;28;20281;-80
2022/03/01 15:14:21;;;;;;;5.10;3.30;;;;;9.00;97253.00;;;;8420718;28;20229;-79
2022/03/01 15:18:25;;;;;;;5.53;3.83;;;;;8.90;97249.00;;;;8414288;28;20219;-81
2022/03/01 15:22:27;;;;;;;3.90;3.50;;;;;8.80;97254.00;;;;8416403;28;20720;-81
2022/03/01 15:26:32;;;;;;;6.10;3.40;;;;;8.70;97258.00;;;;8411776;28;20223;-78
2022/03/01 15:30:35;;;;;;;3.77;3.40;;;;;8.60;97252.00;;;;8416957;28;20222;-81
2022/03/01 15:34:38;;;;;;;4.27;3.17;;;;;8.40;97259.00;;;;8417411;28;20235;-82
2022/03/01 15:38:41;;;;;;;5.13;3.73;;;;;8.30;97254.00;;;;8402292;28;20229;-83
2022/03/01 15:42:46;;;;;;;19.23;8.90;;;;;8.20;97255.00;;;;8408742;28;20227;-82
2022/03/01 15:46:49;;;;;;;6.13;4.37;;;;;8.10;97266.00;;;;8406060;28;20365;-81
2022/03/01 15:50:53;;;;;;;7.23;3.70;;;;;8.10;97258.00;;;;8406074;28;20717;-83
2022/03/01 15:54:56;;;;;;;75.73;42.70;;;;;7.90;97260.00;;;;8418142;28;20231;-79
2022/03/01 15:59:01;;;;;;;19.93;12.97;;;;;7.70;97256.00;;;;8411138;28;20227;-79
2022/03/01 16:03:04;;;;;;;66.57;43.10;;;;;7.50;97258.00;;;;8413580;28;20277;-79
2022/03/01 16:07:08;;;;;;;10.17;6.17;;;;;7.40;97260.00;;;;8403882;28;20231;-76
2022/03/01 16:11:11;;;;;;;65.50;31.73;;;;;7.20;97266.00;;;;8417609;28;20238;-79
2022/03/01 16:15:16;;;;;;;18.73;16.73;;;;;7.00;97257.00;;;;8413056;28;20284;-79
2022/03/01 16:19:19;;;;;;;11.30;6.63;;;;;6.90;97267.00;;;;8401927;28;20235;-83
2022/03/01 16:23:22;;;;;;;15.00;7.13;;;;;6.80;97256.00;;;;8407614;28;20228;-83
2022/03/01 16:27:25;;;;;;;19.10;11.20;;;;;6.60;97256.00;;;;8417542;28;20281;-82
2022/03/01 16:31:30;;;;;;;14.47;9.67;;;;;6.50;97260.00;;;;8410118;28;20227;-82
2022/03/01 16:35:33;;;;;;;13.37;8.93;;;;;6.40;97269.00;;;;8413370;28;20215;-82
2022/03/01 16:39:38;;;;;;;8.53;4.17;;;;;6.20;97273.00;;;;8405306;28;20599;-83
2022/03/01 16:43:41;;;;;;;8.53;4.40;;;;;5.80;97270.00;;;;8411951;28;20229;-83
2022/03/01 16:47:46;;;;;;;7.60;4.63;;;;;5.30;97268.00;;;;8402575;28;20714;-83
2022/03/01 16:51:51;;;;;;;7.37;4.37;;;;;4.90;97271.00;;;;8412352;28;20295;-79
2022/03/01 16:55:55;;;;;;;6.90;4.80;;;;;4.50;97269.00;;;;8407797;28;20229;-82
2022/03/01 16:59:58;;;;;;;12.60;5.10;;;;;4.10;97271.00;;;;8403185;28;20278;-84
2022/03/01 17:04:02;;;;;;;9.83;5.73;;;;;3.70;97265.00;;;;8409955;28;20254;-82
2022/03/01 17:08:06;;;;;;;13.73;6.40;;;;;3.40;97257.00;;;;8405120;28;20435;-83
2022/03/01 17:12:10;;;;;;;13.37;7.10;;;;;3.10;97259.00;;;;8406699;28;20950;-83
2022/03/01 17:16:14;;;;;;;14.90;6.90;;;;;2.90;97260.00;;;;8409585;28;20232;-82
2022/03/01 17:20:19;;;;;;;12.37;7.03;;;;;2.60;97249.00;;;;8400976;28;20260;-83
2022/03/01 17:24:22;;;;;;;15.50;8.10;;;;;2.50;97261.00;;;;8408512;28;20220;-82
2022/03/01 17:28:25;;;;;;;19.67;7.63;;;;;2.50;97265.00;;;;8407598;28;20231;-82
2022/03/01 17:32:28;;;;;;;17.63;7.87;;;;;2.30;97272.00;;;;8407946;28;20215;-81
2022/03/01 17:36:33;;;;;;;14.37;6.57;;;;;2.20;97276.00;;;;8405244;28;20232;-81
2022/03/01 17:40:36;;;;;;;11.40;6.10;;;;;2.20;97266.00;;;;8409394;28;20638;-81
2022/03/01 17:44:40;;;;;;;14.97;7.40;;;;;2.00;97268.00;;;;8398529;28;20292;-82
2022/03/01 17:48:43;;;;;;;17.17;6.57;;;;;1.90;97259.00;;;;8405019;28;20326;-79
2022/03/01 17:52:47;;;;;;;12.70;5.87;;;;;1.70;97264.00;;;;8406758;28;20234;-79
2022/03/01 17:56:51;;;;;;;16.03;6.50;;;;;1.60;97270.00;;;;8406888;28;20220;-77
2022/03/01 18:00:54;;;;;;;8.83;5.70;;;;;1.60;97261.00;;;;8410333;28;20237;-79
2022/03/01 18:04:58;;;;;;;62.57;17.50;;;;;1.60;97260.00;;;;8403073;28;20284;-79
2022/03/01 18:09:02;;;;;;;19.70;9.47;;;;;1.70;97264.00;;;;8407020;28;20241;-76
2022/03/01 18:13:05;;;;;;;15.17;7.60;;;;;1.80;97266.00;;;;8399862;28;20219;-81
2022/03/01 18:17:08;;;;;;;19.67;8.33;;;;;1.80;97261.00;;;;8416598;28;20272;-80
2022/03/01 18:21:11;;;;;;;17.67;7.47;;;;;1.80;97269.00;;;;8400429;28;20300;-82
2022/03/01 18:25:16;;;;;;;19.30;8.37;;;;;1.80;97274.00;;;;8402141;28;20280;-81
2022/03/01 18:29:19;;;;;;;14.53;7.43;;;;;1.70;97268.00;;;;8409847;28;20293;-79
2022/03/01 18:33:22;;;;;;;14.07;7.27;;;;;1.60;97263.00;;;;8408584;28;20222;-81
2022/03/01 18:37:25;;;;;;;11.03;6.23;;;;;1.40;97259.00;;;;8406773;28;20231;-82
2022/03/01 18:41:30;;;;;;;9.40;5.97;;;;;1.30;97255.00;;;;8401866;28;20231;-79
2022/03/01 18:45:33;;;;;;;10.73;6.03;;;;;1.10;97253.00;;;;8397206;28;20234;-76
2022/03/01 18:49:37;;;;;;;15.70;7.53;;;;;1.00;97248.00;;;;8390130;28;20269;-82
2022/03/01 18:53:40;;;;;;;12.73;5.83;;;;;0.90;97248.00;;;;8401674;28;20231;-79
2022/03/01 18:57:46;;;;;;;10.77;6.73;;;;;0.70;97245.00;;;;8398882;28;20247;-78
2022/03/01 19:01:49;;;;;;;17.23;7.37;;;;;0.60;97246.00;;;;8396393;28;20232;-78
2022/03/01 19:05:52;;;;;;;15.00;7.23;;;;;0.60;97244.00;;;;8396279;28;20246;-77
2022/03/01 19:09:55;;;;;;;9.17;4.80;;;;;0.90;97254.00;;;;8397708;28;20223;-78
2022/03/01 19:14:06;;;;;;;7.13;4.57;;;;;1.20;97253.00;;;;8396744;28;20581;-78
2022/03/01 19:18:12;;;;;;;16.00;8.03;;;;;1.50;97254.00;;;;8398732;28;20215;-77
2022/03/01 19:22:15;;;;;;;12.60;6.50;;;;;1.70;97256.00;;;;8399225;28;20223;-81
2022/03/01 19:26:18;;;;;;;10.17;5.30;;;;;1.80;97254.00;;;;8402936;28;20227;-80
2022/03/01 19:30:22;;;;;;;23.97;10.13;;;;;2.10;97256.00;;;;8404223;28;20285;-80
2022/03/01 19:34:28;;;;;;;15.63;7.60;;;;;2.20;97246.00;;;;8400631;28;20302;-79
2022/03/01 19:38:31;;;;;;;16.47;7.67;;;;;2.30;97259.00;;;;8403173;28;20248;-77
2022/03/01 19:42:39;;;;;;;11.57;6.20;;;;;2.30;97259.00;;;;8401349;28;21624;-75
2022/03/01 19:46:43;;;;;;;12.90;6.53;;;;;2.40;97259.00;;;;8405827;28;20271;-76
2022/03/01 19:50:47;;;;;;;10.97;6.10;;;;;2.40;97249.00;;;;8404411;28;20230;-77
2022/03/01 19:54:50;;;;;;;9.33;5.80;;;;;2.40;97258.00;;;;8406660;28;20825;-74
2022/03/01 19:58:53;;;;;;;15.03;6.87;;;;;2.50;97259.00;;;;8403922;28;20231;-72
2022/03/01 20:02:59;;;;;;;13.03;6.80;;;;;2.50;97254.00;;;;8403876;28;20288;-73
2022/03/01 20:07:03;;;;;;;13.43;6.70;;;;;2.50;97258.00;;;;8401161;28;20229;-76
2022/03/01 20:11:06;;;;;;;15.07;6.83;;;;;2.40;97264.00;;;;8406542;28;20737;-72
2022/03/01 20:15:10;;;;;;;11.30;6.53;;;;;2.40;97254.00;;;;8406056;28;20225;-73
2022/03/01 20:19:16;;;;;;;17.63;10.63;;;;;2.20;97254.00;;;;8405841;28;20233;-73
2022/03/01 20:23:19;;;;;;;14.50;8.00;;;;;1.90;97249.00;;;;8404214;28;20343;-74